Cadillac — WAL7932 — position and weather

sailwx.info

Track history (hours):
 
Tides and Currents Weather Stations Pressure Air Temp Water Temp Dewpoint Dewpoint Depression Visibility Wind Speed Wind Dir Waves Ship Positions

Cadillac

Owner: MACKINAW LAKESHORE DEVELOPMENT, MACKINAW CITY, MI. More information available from US FCC via Universal Licensing System and Coast Guard Vessel Documentation Center.

Last reported at 2017-Oct-12 00:23 UTC. Time now 2017-Nov-20 03:56 UTC.
Position N 45°46' W 084°43'.
Warning: this ship's position is 39 days out of date.

Length 19 m.

Type: Passenger vessel. MMSI: 367031580.

Date/timePositionNaut miles runAvg speedWind from/ knotsBaromVisibWave heightAir tempDewpointWater temp
2017-Oct-12 00:23N 45°46' W 084°43'613.7
2017-Oct-11 23:55N 45°51' W 084°37'614.3
2017-Oct-11 23:28N 45°46' W 084°43'0 0.0
2017-Oct-11 22:54N 45°46' W 084°43'616.4
2017-Oct-11 22:30N 45°51' W 084°37'611.8
2017-Oct-11 21:58N 45°46' W 084°43'611.7
2017-Oct-11 21:25N 45°51' W 084°37'614.7
2017-Oct-11 20:59N 45°46' W 084°43'611.3
2017-Oct-11 20:25N 45°51' W 084°37'613.8
2017-Oct-11 19:57N 45°46' W 084°43'611.8
2017-Oct-11 19:24N 45°51' W 084°37'6 8.5
2017-Oct-11 18:39N 45°46' W 084°43'0 0.3
2017-Oct-11 18:28N 45°46' W 084°43'613.9
2017-Oct-11 18:00N 45°51' W 084°37'612.6
2017-Oct-11 17:30N 45°46' W 084°43'612.8
2017-Oct-11 17:00N 45°51' W 084°37'0 0.0
2017-Oct-11 00:00N 45°51' W 084°37'612.6
2017-Oct-10 23:30N 45°46' W 084°43'0 0.0
2017-Oct-10 22:59N 45°46' W 084°43'611.3
2017-Oct-10 22:25N 45°51' W 084°37'613.5
2017-Oct-10 21:57N 45°46' W 084°43'611.3
2017-Oct-10 21:23N 45°51' W 084°37'616.4
2017-Oct-10 20:59N 45°46' W 084°43'611.8
2017-Oct-10 20:27N 45°51' W 084°37'614.3
2017-Oct-10 20:00N 45°46' W 084°43'612.2
2017-Oct-10 19:28N 45°51' W 084°37'613.6
2017-Oct-10 19:00N 45°46' W 084°43'6 9.7
2017-Oct-10 18:22N 45°51' W 084°37'617.2
2017-Oct-10 18:00N 45°46' W 084°43'0 0.0
2017-Oct-09 17:11N 45°46' W 084°44'0 2.4
2017-Oct-09 17:00N 45°46' W 084°43'610.4
2017-Oct-09 16:25N 45°51' W 084°37'615.7
2017-Oct-09 16:00N 45°46' W 084°43'0 0.0
2017-Oct-09 15:29N 45°46' W 084°43'0 0.1
2017-Oct-09 13:49N 45°46' W 084°44'516.2
2017-Oct-09 13:31N 45°50' W 084°38'5 1.3
2017-Oct-09 10:00N 45°52' W 084°44'0 0.0
2017-Oct-09 08:54N 45°52' W 084°44'0 0.0
2017-Oct-09 08:24N 45°52' W 084°44'0 0.0
2017-Oct-09 08:00N 45°52' W 084°44'0 0.0
2017-Oct-09 07:30N 45°52' W 084°44'0 0.0
2017-Oct-09 07:00N 45°52' W 084°44'0 0.0
2017-Oct-09 06:15N 45°52' W 084°44'0 0.0
2017-Oct-09 06:00N 45°52' W 084°44'0 0.0
2017-Oct-09 05:24N 45°52' W 084°44'0 0.0
2017-Oct-09 05:00N 45°52' W 084°44'0 0.0
2017-Oct-09 04:24N 45°52' W 084°44'0 0.0
2017-Oct-09 04:00N 45°52' W 084°44'0 0.0
2017-Oct-09 03:30N 45°52' W 084°44'0 0.0
2017-Oct-09 03:00N 45°52' W 084°44'0 0.0
2017-Oct-09 02:24N 45°52' W 084°44'0 0.0
2017-Oct-09 01:45N 45°52' W 084°44'0 0.0
2017-Oct-09 01:24N 45°52' W 084°44'0 0.0
2017-Oct-09 01:00N 45°52' W 084°44'0 0.0
2017-Oct-09 00:30N 45°52' W 084°44'0 0.0
2017-Oct-08 23:54N 45°52' W 084°44'0 0.0
2017-Oct-08 23:27N 45°52' W 084°44'0 0.0
2017-Oct-08 23:00N 45°52' W 084°44'0 0.0
2017-Oct-08 22:21N 45°52' W 084°44'0 0.0
2017-Oct-08 21:54N 45°52' W 084°44'0 0.0
2017-Oct-08 21:27N 45°52' W 084°44'0 0.0
2017-Oct-08 20:57N 45°52' W 084°44'0 0.0
2017-Oct-08 20:27N 45°52' W 084°44'0 0.0
2017-Oct-08 20:00N 45°52' W 084°44'0 0.0
2017-Oct-08 19:30N 45°52' W 084°44'0 0.0
2017-Oct-08 18:54N 45°52' W 084°44'0 0.1
2017-Oct-08 18:21N 45°52' W 084°44'0 0.1
2017-Oct-08 18:00N 45°52' W 084°44'5 9.6
2017-Oct-08 17:29N 45°51' W 084°37'612.8
2017-Oct-08 16:59N 45°46' W 084°43'612.8
2017-Oct-08 16:29N 45°51' W 084°37'0 0.3
2017-Oct-08 15:59N 45°51' W 084°37'613.4
2017-Oct-08 15:30N 45°46' W 084°43'610.7
2017-Oct-08 14:54N 45°51' W 084°37'615.1
2017-Oct-08 14:28N 45°46' W 084°43'613.8
2017-Oct-08 14:00N 45°51' W 084°37'612.6
2017-Oct-08 13:30N 45°46' W 084°43'0 0.0
2017-Oct-07 16:25N 45°46' W 084°43'610.8
2017-Oct-07 15:49N 45°51' W 084°37'619.2
2017-Oct-07 15:29N 45°46' W 084°43'612.6
2017-Oct-07 14:59N 45°51' W 084°37'611.3
2017-Oct-07 14:25N 45°46' W 084°43'613.8
2017-Oct-07 13:57N 45°51' W 084°37'610.9
2017-Oct-07 13:21N 45°46' W 084°43'0 0.0
2017-Oct-07 11:24N 45°46' W 084°43'0 0.0
2017-Oct-07 10:32N 45°46' W 084°43'0 0.0
2017-Oct-07 10:20N 45°46' W 084°43'0 0.0
2017-Oct-07 09:56N 45°46' W 084°43'0 0.0
2017-Oct-07 09:29N 45°46' W 084°43'0 0.0
2017-Oct-07 08:56N 45°46' W 084°43'0 0.0
2017-Oct-07 08:23N 45°46' W 084°43'0 0.0
2017-Oct-07 07:53N 45°46' W 084°43'0 0.0
2017-Oct-07 07:29N 45°46' W 084°43'0 0.0
2017-Oct-07 06:59N 45°46' W 084°43'0 0.0
2017-Oct-07 06:23N 45°46' W 084°43'0 0.0
2017-Oct-07 05:59N 45°46' W 084°43'0 0.0
2017-Oct-07 05:29N 45°46' W 084°43'0 0.0
2017-Oct-07 04:59N 45°46' W 084°43'0 0.0
2017-Oct-07 04:26N 45°46' W 084°43'0 0.0
2017-Oct-07 03:59N 45°46' W 084°43'0 0.0
2017-Oct-07 03:29N 45°46' W 084°43'0 0.0
2017-Oct-07 02:59N 45°46' W 084°43'0 0.0
2017-Oct-07 02:29N 45°46' W 084°43'0 0.0
2017-Oct-07 01:59N 45°46' W 084°43'0 0.0
2017-Oct-07 01:29N 45°46' W 084°43'0 0.0
2017-Oct-07 00:59N 45°46' W 084°43'0 0.0
2017-Oct-07 00:29N 45°46' W 084°43'0 0.0
2017-Oct-06 23:59N 45°46' W 084°43'0 0.0
2017-Oct-06 23:26N 45°46' W 084°43'0 0.0
2017-Oct-06 22:59N 45°46' W 084°43'0 0.0
2017-Oct-06 22:29N 45°46' W 084°43'0 0.0
2017-Oct-06 21:59N 45°46' W 084°43'0 0.0
2017-Oct-06 21:23N 45°46' W 084°43'0 0.0
2017-Oct-06 20:47N 45°46' W 084°43'0 0.0
2017-Oct-06 20:23N 45°46' W 084°43'0 0.0
2017-Oct-06 19:56N 45°46' W 084°43'0 0.0
2017-Oct-06 19:29N 45°46' W 084°43'0 0.0
2017-Oct-06 18:59N 45°46' W 084°43'0 0.0
2017-Oct-06 18:29N 45°46' W 084°43'0 0.0
2017-Oct-06 17:59N 45°46' W 084°43'0 0.0
2017-Oct-06 17:29N 45°46' W 084°43'0 0.0
2017-Oct-06 16:59N 45°46' W 084°43'2 3.2
2017-Oct-06 16:29N 45°48' W 084°43'5 0.2
2017-Oct-05 12:14N 45°52' W 084°44'417.5
2017-Oct-05 12:01N 45°51' W 084°38'3 6.1
2017-Oct-05 11:29N 45°52' W 084°43'1 1.6
2017-Oct-05 11:00N 45°52' W 084°44'0 0.0
2017-Oct-05 10:22N 45°52' W 084°44'0 0.0
2017-Oct-05 09:52N 45°52' W 084°44'0 0.0
2017-Oct-05 09:28N 45°52' W 084°44'0 0.0
2017-Oct-05 08:58N 45°52' W 084°44'0 0.0
2017-Oct-05 08:13N 45°52' W 084°44'0 0.0
2017-Oct-05 07:58N 45°52' W 084°44'0 0.0
2017-Oct-05 07:19N 45°52' W 084°44'0 0.0
2017-Oct-05 06:58N 45°52' W 084°44'0 0.0
2017-Oct-05 06:25N 45°52' W 084°44'0 0.0
2017-Oct-05 05:58N 45°52' W 084°44'0 0.0
2017-Oct-05 05:28N 45°52' W 084°44'0 0.0
2017-Oct-05 04:52N 45°52' W 084°44'0 0.0
2017-Oct-05 04:10N 45°52' W 084°44'0 0.0
2017-Oct-05 03:46N 45°52' W 084°44'0 0.0
2017-Oct-05 03:16N 45°52' W 084°44'0 0.0
2017-Oct-05 02:58N 45°52' W 084°44'0 0.0
2017-Oct-05 02:28N 45°52' W 084°44'0 0.0
2017-Oct-05 01:55N 45°52' W 084°44'0 0.0
2017-Oct-05 01:22N 45°52' W 084°44'0 0.0
2017-Oct-05 00:52N 45°52' W 084°44'0 0.0
2017-Oct-05 00:22N 45°52' W 084°44'0 0.0
2017-Oct-04 23:10N 45°52' W 084°44'0 0.0
2017-Oct-04 22:54N 45°52' W 084°44'5 9.4
2017-Oct-04 22:22N 45°51' W 084°37'512.3
2017-Oct-04 21:58N 45°52' W 084°44'510.2
2017-Oct-04 21:29N 45°51' W 084°37'5 9.7
2017-Oct-04 20:59N 45°52' W 084°44'5 7.8
2017-Oct-04 20:21N 45°51' W 084°37'514.4
2017-Oct-04 20:01N 45°52' W 084°44'5 8.0
2017-Oct-04 19:24N 45°51' W 084°37'510.2
2017-Oct-04 18:55N 45°52' W 084°44'5 8.3
2017-Oct-04 18:19N 45°51' W 084°37'515.5
2017-Oct-04 18:00N 45°52' W 084°44'5 8.8
2017-Oct-04 17:26N 45°51' W 084°37'510.4
2017-Oct-04 16:58N 45°52' W 084°44'4 8.0
2017-Oct-04 16:27N 45°50' W 084°39'4 7.4
2017-Oct-04 15:53N 45°52' W 084°44'510.4
2017-Oct-04 15:24N 45°51' W 084°37'512.0
2017-Oct-04 15:00N 45°52' W 084°44'510.3
2017-Oct-04 14:30N 45°51' W 084°37'5 7.7
2017-Oct-04 13:51N 45°52' W 084°44'511.3
2017-Oct-04 13:25N 45°51' W 084°37'5 4.4
2017-Oct-04 12:19N 45°52' W 084°44'513.7
2017-Oct-04 11:58N 45°51' W 084°37'4 9.1
2017-Oct-04 11:30N 45°52' W 084°43'1 0.1
2017-Oct-03 22:49N 45°52' W 084°44'514.4
2017-Oct-03 22:29N 45°51' W 084°37'5 7.5
2017-Oct-03 21:49N 45°52' W 084°44'511.6
2017-Oct-03 21:24N 45°51' W 084°37'5 9.2
2017-Oct-03 20:52N 45°52' W 084°44'513.4
2017-Oct-03 20:30N 45°51' W 084°37'510.0
2017-Oct-03 20:00N 45°52' W 084°44'5 9.1
2017-Oct-03 19:28N 45°51' W 084°37'510.7
2017-Oct-03 19:00N 45°52' W 084°44'0 0.2
2017-Oct-03 18:30N 45°52' W 084°44'611.5
2017-Oct-03 17:59N 45°46' W 084°43'613.2
2017-Oct-03 17:29N 45°51' W 084°37'611.5
2017-Oct-03 16:59N 45°47' W 084°43'510.0
2017-Oct-03 16:29N 45°50' W 084°37'511.3
2017-Oct-03 16:00N 45°46' W 084°43'611.3
2017-Oct-03 15:29N 45°51' W 084°37'612.2
2017-Oct-03 14:59N 45°46' W 084°43'0 0.0
2017-Oct-03 13:59N 45°46' W 084°43'612.6
2017-Oct-03 13:29N 45°51' W 084°37'  
Track history (hours):
 
Tides and Currents Weather Stations Pressure Air Temp Water Temp Dewpoint Dewpoint Depression Visibility Wind Speed Wind Dir Waves Ship Positions

Cadillac

Owner: MACKINAW LAKESHORE DEVELOPMENT, MACKINAW CITY, MI. More information available from US FCC via Universal Licensing System and Coast Guard Vessel Documentation Center.

Last reported at 2017-Oct-12 00:23 UTC. Time now 2017-Nov-20 03:56 UTC.
Position N 45°46' W 084°43'.
Warning: this ship's position is 39 days out of date.

Length 19 m.

Type: Passenger vessel. MMSI: 367031580.

Date/timePositionNaut miles runAvg speedWind from/ knotsBaromVisibWave heightAir tempDewpointWater temp
2017-Oct-12 00:23N 45°46' W 084°43'613.7
2017-Oct-11 23:55N 45°51' W 084°37'614.3
2017-Oct-11 23:28N 45°46' W 084°43'0 0.0
2017-Oct-11 22:54N 45°46' W 084°43'616.4
2017-Oct-11 22:30N 45°51' W 084°37'611.8
2017-Oct-11 21:58N 45°46' W 084°43'611.7
2017-Oct-11 21:25N 45°51' W 084°37'614.7
2017-Oct-11 20:59N 45°46' W 084°43'611.3
2017-Oct-11 20:25N 45°51' W 084°37'613.8
2017-Oct-11 19:57N 45°46' W 084°43'611.8
2017-Oct-11 19:24N 45°51' W 084°37'6 8.5
2017-Oct-11 18:39N 45°46' W 084°43'0 0.3
2017-Oct-11 18:28N 45°46' W 084°43'613.9
2017-Oct-11 18:00N 45°51' W 084°37'612.6
2017-Oct-11 17:30N 45°46' W 084°43'612.8
2017-Oct-11 17:00N 45°51' W 084°37'0 0.0
2017-Oct-11 00:00N 45°51' W 084°37'612.6
2017-Oct-10 23:30N 45°46' W 084°43'0 0.0
2017-Oct-10 22:59N 45°46' W 084°43'611.3
2017-Oct-10 22:25N 45°51' W 084°37'613.5
2017-Oct-10 21:57N 45°46' W 084°43'611.3
2017-Oct-10 21:23N 45°51' W 084°37'616.4
2017-Oct-10 20:59N 45°46' W 084°43'611.8
2017-Oct-10 20:27N 45°51' W 084°37'614.3
2017-Oct-10 20:00N 45°46' W 084°43'612.2
2017-Oct-10 19:28N 45°51' W 084°37'613.6
2017-Oct-10 19:00N 45°46' W 084°43'6 9.7
2017-Oct-10 18:22N 45°51' W 084°37'617.2
2017-Oct-10 18:00N 45°46' W 084°43'0 0.0
2017-Oct-09 17:11N 45°46' W 084°44'0 2.4
2017-Oct-09 17:00N 45°46' W 084°43'610.4
2017-Oct-09 16:25N 45°51' W 084°37'615.7
2017-Oct-09 16:00N 45°46' W 084°43'0 0.0
2017-Oct-09 15:29N 45°46' W 084°43'0 0.1
2017-Oct-09 13:49N 45°46' W 084°44'516.2
2017-Oct-09 13:31N 45°50' W 084°38'5 1.3
2017-Oct-09 10:00N 45°52' W 084°44'0 0.0
2017-Oct-09 08:54N 45°52' W 084°44'0 0.0
2017-Oct-09 08:24N 45°52' W 084°44'0 0.0
2017-Oct-09 08:00N 45°52' W 084°44'0 0.0
2017-Oct-09 07:30N 45°52' W 084°44'0 0.0
2017-Oct-09 07:00N 45°52' W 084°44'0 0.0
2017-Oct-09 06:15N 45°52' W 084°44'0 0.0
2017-Oct-09 06:00N 45°52' W 084°44'0 0.0
2017-Oct-09 05:24N 45°52' W 084°44'0 0.0
2017-Oct-09 05:00N 45°52' W 084°44'0 0.0
2017-Oct-09 04:24N 45°52' W 084°44'0 0.0
2017-Oct-09 04:00N 45°52' W 084°44'0 0.0
2017-Oct-09 03:30N 45°52' W 084°44'0 0.0
2017-Oct-09 03:00N 45°52' W 084°44'0 0.0
2017-Oct-09 02:24N 45°52' W 084°44'0 0.0
2017-Oct-09 01:45N 45°52' W 084°44'0 0.0
2017-Oct-09 01:24N 45°52' W 084°44'0 0.0
2017-Oct-09 01:00N 45°52' W 084°44'0 0.0
2017-Oct-09 00:30N 45°52' W 084°44'0 0.0
2017-Oct-08 23:54N 45°52' W 084°44'0 0.0
2017-Oct-08 23:27N 45°52' W 084°44'0 0.0
2017-Oct-08 23:00N 45°52' W 084°44'0 0.0
2017-Oct-08 22:21N 45°52' W 084°44'0 0.0
2017-Oct-08 21:54N 45°52' W 084°44'0 0.0
2017-Oct-08 21:27N 45°52' W 084°44'0 0.0
2017-Oct-08 20:57N 45°52' W 084°44'0 0.0
2017-Oct-08 20:27N 45°52' W 084°44'0 0.0
2017-Oct-08 20:00N 45°52' W 084°44'0 0.0
2017-Oct-08 19:30N 45°52' W 084°44'0 0.0
2017-Oct-08 18:54N 45°52' W 084°44'0 0.1
2017-Oct-08 18:21N 45°52' W 084°44'0 0.1
2017-Oct-08 18:00N 45°52' W 084°44'5 9.6
2017-Oct-08 17:29N 45°51' W 084°37'612.8
2017-Oct-08 16:59N 45°46' W 084°43'612.8
2017-Oct-08 16:29N 45°51' W 084°37'0 0.3
2017-Oct-08 15:59N 45°51' W 084°37'613.4
2017-Oct-08 15:30N 45°46' W 084°43'610.7
2017-Oct-08 14:54N 45°51' W 084°37'615.1
2017-Oct-08 14:28N 45°46' W 084°43'613.8
2017-Oct-08 14:00N 45°51' W 084°37'612.6
2017-Oct-08 13:30N 45°46' W 084°43'0 0.0
2017-Oct-07 16:25N 45°46' W 084°43'610.8
2017-Oct-07 15:49N 45°51' W 084°37'619.2
2017-Oct-07 15:29N 45°46' W 084°43'612.6
2017-Oct-07 14:59N 45°51' W 084°37'611.3
2017-Oct-07 14:25N 45°46' W 084°43'613.8
2017-Oct-07 13:57N 45°51' W 084°37'610.9
2017-Oct-07 13:21N 45°46' W 084°43'0 0.0
2017-Oct-07 11:24N 45°46' W 084°43'0 0.0
2017-Oct-07 10:32N 45°46' W 084°43'0 0.0
2017-Oct-07 10:20N 45°46' W 084°43'0 0.0
2017-Oct-07 09:56N 45°46' W 084°43'0 0.0
2017-Oct-07 09:29N 45°46' W 084°43'0 0.0
2017-Oct-07 08:56N 45°46' W 084°43'0 0.0
2017-Oct-07 08:23N 45°46' W 084°43'0 0.0
2017-Oct-07 07:53N 45°46' W 084°43'0 0.0
2017-Oct-07 07:29N 45°46' W 084°43'0 0.0
2017-Oct-07 06:59N 45°46' W 084°43'0 0.0
2017-Oct-07 06:23N 45°46' W 084°43'0 0.0
2017-Oct-07 05:59N 45°46' W 084°43'0 0.0
2017-Oct-07 05:29N 45°46' W 084°43'0 0.0
2017-Oct-07 04:59N 45°46' W 084°43'0 0.0
2017-Oct-07 04:26N 45°46' W 084°43'0 0.0
2017-Oct-07 03:59N 45°46' W 084°43'0 0.0
2017-Oct-07 03:29N 45°46' W 084°43'0 0.0
2017-Oct-07 02:59N 45°46' W 084°43'0 0.0
2017-Oct-07 02:29N 45°46' W 084°43'0 0.0
2017-Oct-07 01:59N 45°46' W 084°43'0 0.0
2017-Oct-07 01:29N 45°46' W 084°43'0 0.0
2017-Oct-07 00:59N 45°46' W 084°43'0 0.0
2017-Oct-07 00:29N 45°46' W 084°43'0 0.0
2017-Oct-06 23:59N 45°46' W 084°43'0 0.0
2017-Oct-06 23:26N 45°46' W 084°43'0 0.0
2017-Oct-06 22:59N 45°46' W 084°43'0 0.0
2017-Oct-06 22:29N 45°46' W 084°43'0 0.0
2017-Oct-06 21:59N 45°46' W 084°43'0 0.0
2017-Oct-06 21:23N 45°46' W 084°43'0 0.0
2017-Oct-06 20:47N 45°46' W 084°43'0 0.0
2017-Oct-06 20:23N 45°46' W 084°43'0 0.0
2017-Oct-06 19:56N 45°46' W 084°43'0 0.0
2017-Oct-06 19:29N 45°46' W 084°43'0 0.0
2017-Oct-06 18:59N 45°46' W 084°43'0 0.0
2017-Oct-06 18:29N 45°46' W 084°43'0 0.0
2017-Oct-06 17:59N 45°46' W 084°43'0 0.0
2017-Oct-06 17:29N 45°46' W 084°43'0 0.0
2017-Oct-06 16:59N 45°46' W 084°43'2 3.2
2017-Oct-06 16:29N 45°48' W 084°43'5 0.2
2017-Oct-05 12:14N 45°52' W 084°44'417.5
2017-Oct-05 12:01N 45°51' W 084°38'3 6.1
2017-Oct-05 11:29N 45°52' W 084°43'1 1.6
2017-Oct-05 11:00N 45°52' W 084°44'0 0.0
2017-Oct-05 10:22N 45°52' W 084°44'0 0.0
2017-Oct-05 09:52N 45°52' W 084°44'0 0.0
2017-Oct-05 09:28N 45°52' W 084°44'0 0.0
2017-Oct-05 08:58N 45°52' W 084°44'0 0.0
2017-Oct-05 08:13N 45°52' W 084°44'0 0.0
2017-Oct-05 07:58N 45°52' W 084°44'0 0.0
2017-Oct-05 07:19N 45°52' W 084°44'0 0.0
2017-Oct-05 06:58N 45°52' W 084°44'0 0.0
2017-Oct-05 06:25N 45°52' W 084°44'0 0.0
2017-Oct-05 05:58N 45°52' W 084°44'0 0.0
2017-Oct-05 05:28N 45°52' W 084°44'0 0.0
2017-Oct-05 04:52N 45°52' W 084°44'0 0.0
2017-Oct-05 04:10N 45°52' W 084°44'0 0.0
2017-Oct-05 03:46N 45°52' W 084°44'0 0.0
2017-Oct-05 03:16N 45°52' W 084°44'0 0.0
2017-Oct-05 02:58N 45°52' W 084°44'0 0.0
2017-Oct-05 02:28N 45°52' W 084°44'0 0.0
2017-Oct-05 01:55N 45°52' W 084°44'0 0.0
2017-Oct-05 01:22N 45°52' W 084°44'0 0.0
2017-Oct-05 00:52N 45°52' W 084°44'0 0.0
2017-Oct-05 00:22N 45°52' W 084°44'0 0.0
2017-Oct-04 23:10N 45°52' W 084°44'0 0.0
2017-Oct-04 22:54N 45°52' W 084°44'5 9.4
2017-Oct-04 22:22N 45°51' W 084°37'512.3
2017-Oct-04 21:58N 45°52' W 084°44'510.2
2017-Oct-04 21:29N 45°51' W 084°37'5 9.7
2017-Oct-04 20:59N 45°52' W 084°44'5 7.8
2017-Oct-04 20:21N 45°51' W 084°37'514.4
2017-Oct-04 20:01N 45°52' W 084°44'5 8.0
2017-Oct-04 19:24N 45°51' W 084°37'510.2
2017-Oct-04 18:55N 45°52' W 084°44'5 8.3
2017-Oct-04 18:19N 45°51' W 084°37'515.5
2017-Oct-04 18:00N 45°52' W 084°44'5 8.8
2017-Oct-04 17:26N 45°51' W 084°37'510.4
2017-Oct-04 16:58N 45°52' W 084°44'4 8.0
2017-Oct-04 16:27N 45°50' W 084°39'4 7.4
2017-Oct-04 15:53N 45°52' W 084°44'510.4
2017-Oct-04 15:24N 45°51' W 084°37'512.0
2017-Oct-04 15:00N 45°52' W 084°44'510.3
2017-Oct-04 14:30N 45°51' W 084°37'5 7.7
2017-Oct-04 13:51N 45°52' W 084°44'511.3
2017-Oct-04 13:25N 45°51' W 084°37'5 4.4
2017-Oct-04 12:19N 45°52' W 084°44'513.7
2017-Oct-04 11:58N 45°51' W 084°37'4 9.1
2017-Oct-04 11:30N 45°52' W 084°43'1 0.1
2017-Oct-03 22:49N 45°52' W 084°44'514.4
2017-Oct-03 22:29N 45°51' W 084°37'5 7.5
2017-Oct-03 21:49N 45°52' W 084°44'511.6
2017-Oct-03 21:24N 45°51' W 084°37'5 9.2
2017-Oct-03 20:52N 45°52' W 084°44'513.4
2017-Oct-03 20:30N 45°51' W 084°37'510.0
2017-Oct-03 20:00N 45°52' W 084°44'5 9.1
2017-Oct-03 19:28N 45°51' W 084°37'510.7
2017-Oct-03 19:00N 45°52' W 084°44'0 0.2
2017-Oct-03 18:30N 45°52' W 084°44'611.5
2017-Oct-03 17:59N 45°46' W 084°43'613.2
2017-Oct-03 17:29N 45°51' W 084°37'611.5
2017-Oct-03 16:59N 45°47' W 084°43'510.0
2017-Oct-03 16:29N 45°50' W 084°37'511.3
2017-Oct-03 16:00N 45°46' W 084°43'611.3
2017-Oct-03 15:29N 45°51' W 084°37'612.2
2017-Oct-03 14:59N 45°46' W 084°43'0 0.0
2017-Oct-03 13:59N 45°46' W 084°43'612.6
2017-Oct-03 13:29N 45°51' W 084°37'  

Dump ship's entire track history